createdAt,value
2017-11-24T00:00:35.019Z,45.72
2017-11-24T00:01:44.569Z,45.72
2017-11-24T00:02:53.753Z,45.92
2017-11-24T00:04:02.929Z,45.82
2017-11-24T00:05:12.115Z,45.43
2017-11-24T00:06:21.124Z,45.43
2017-11-24T00:07:30.048Z,45.82
2017-11-24T00:08:39.007Z,45.53
2017-11-24T00:09:48.176Z,45.43
2017-11-24T00:10:57.192Z,45.62
2017-11-24T00:12:06.650Z,45.72
2017-11-24T00:13:16.388Z,45.43
2017-11-24T00:14:25.290Z,45.53
2017-11-24T00:15:34.504Z,45.43
2017-11-24T00:16:43.424Z,45.72
2017-11-24T00:17:52.843Z,45.34
2017-11-24T00:19:02.324Z,45.53
2017-11-24T00:20:10.967Z,45.72
2017-11-24T00:21:19.906Z,45.53
2017-11-24T00:22:29.339Z,45.62
2017-11-24T00:23:38.792Z,45.62
2017-11-24T00:24:47.895Z,45.62
2017-11-24T00:25:56.806Z,45.62
2017-11-24T00:27:06.324Z,45.62
2017-11-24T00:28:15.284Z,45.62
2017-11-24T00:29:24.731Z,45.43
2017-11-24T00:30:33.669Z,45.72
2017-11-24T00:31:43.000Z,45.62
2017-11-24T00:32:52.705Z,45.53
2017-11-24T00:34:01.662Z,45.72
2017-11-24T00:35:11.094Z,45.53
2017-11-24T00:36:19.994Z,45.62
2017-11-24T00:37:28.919Z,45.62
2017-11-24T00:38:37.890Z,45.62
2017-11-24T00:39:47.067Z,45.72
2017-11-24T00:40:56.228Z,45.62
2017-11-24T00:42:05.399Z,45.34
2017-11-24T00:43:14.551Z,45.53
2017-11-24T00:44:23.728Z,45.34
2017-11-24T00:45:32.937Z,45.43
2017-11-24T00:46:42.163Z,45.43
2017-11-24T00:47:51.597Z,45.34
2017-11-24T00:49:00.524Z,45.53
2017-11-24T00:50:09.714Z,45.53
2017-11-24T00:51:18.652Z,45.53
2017-11-24T00:52:27.561Z,45.43
2017-11-24T00:53:36.749Z,45.53
2017-11-24T00:54:45.406Z,45.72
2017-11-24T00:55:54.846Z,45.53
2017-11-24T00:57:04.294Z,45.43
2017-11-24T00:58:13.548Z,45.53
2017-11-24T00:59:22.471Z,45.43
2017-11-24T01:00:31.427Z,45.43
2017-11-24T01:01:40.881Z,45.53
2017-11-24T01:02:50.330Z,45.72
2017-11-24T01:03:59.507Z,46.11
2017-11-24T01:05:08.404Z,45.72
2017-11-24T01:06:17.842Z,45.53
2017-11-24T01:07:27.532Z,45.82
2017-11-24T01:08:36.193Z,45.72
2017-11-24T01:09:45.118Z,45.82
2017-11-24T01:10:54.054Z,45.82
2017-11-24T01:12:03.775Z,45.92
2017-11-24T01:13:12.944Z,45.82
2017-11-24T01:14:22.399Z,45.82
2017-11-24T01:15:31.334Z,45.53
2017-11-24T01:16:40.507Z,45.82
2017-11-24T01:17:49.943Z,45.62
2017-11-24T01:18:59.133Z,46.01
2017-11-24T01:20:07.791Z,46.11
2017-11-24T01:21:16.990Z,45.72
2017-11-24T01:22:26.723Z,45.82
2017-11-24T01:23:35.944Z,45.72
2017-11-24T01:24:45.117Z,46.01
2017-11-24T01:25:54.288Z,45.82
2017-11-24T01:27:03.188Z,45.72
2017-11-24T01:28:12.359Z,45.53
2017-11-24T01:29:21.530Z,46.11
2017-11-24T01:30:30.463Z,46.11
2017-11-24T01:31:39.635Z,46.11
2017-11-24T01:32:49.063Z,46.11
2017-11-24T01:33:58.502Z,46.11
2017-11-24T01:35:07.671Z,46.11
2017-11-24T01:36:16.582Z,46.11
2017-11-24T01:37:26.077Z,46.2
2017-11-24T01:38:35.847Z,46.01
2017-11-24T01:39:45.026Z,45.79
2017-11-24T01:40:53.975Z,46.01
2017-11-24T01:42:02.877Z,46.01
2017-11-24T01:43:12.056Z,45.92
2017-11-24T01:44:20.700Z,45.92
2017-11-24T01:45:29.611Z,46.01
2017-11-24T01:46:38.251Z,45.82
2017-11-24T01:47:47.436Z,45.92
2017-11-24T01:48:56.862Z,45.92
2017-11-24T01:50:06.039Z,45.92
2017-11-24T01:51:14.978Z,45.92
2017-11-24T01:52:23.894Z,46.01
2017-11-24T01:53:33.362Z,46.01
2017-11-24T01:54:42.306Z,45.92
2017-11-24T01:55:51.494Z,45.82
2017-11-24T01:57:00.981Z,45.92
2017-11-24T01:58:10.160Z,45.79
2017-11-24T01:59:19.087Z,46.2
2017-11-24T02:00:27.728Z,45.92
2017-11-24T02:01:36.378Z,46.01
2017-11-24T02:02:45.569Z,46.11
2017-11-24T02:03:54.209Z,46.01
2017-11-24T02:05:03.373Z,46.01
2017-11-24T02:06:12.316Z,46.01
2017-11-24T02:07:21.509Z,46.01
2017-11-24T02:08:30.702Z,46.11
2017-11-24T02:09:40.133Z,45.92
2017-11-24T02:10:49.044Z,45.92
2017-11-24T02:11:57.956Z,46.11
2017-11-24T02:13:06.617Z,45.92
2017-11-24T02:14:15.791Z,46.01
2017-11-24T02:15:24.712Z,46.01
2017-11-24T02:16:33.360Z,45.92
2017-11-24T02:17:42.028Z,46.11
2017-11-24T02:18:50.964Z,46.11
2017-11-24T02:20:00.184Z,46.01
2017-11-24T02:21:09.100Z,46.11
2017-11-24T02:22:18.550Z,45.99
2017-11-24T02:23:27.750Z,46.2
2017-11-24T02:24:36.923Z,45.99
2017-11-24T02:25:45.904Z,46.01
2017-11-24T02:26:55.358Z,46.08
2017-11-24T02:28:04.310Z,45.89
2017-11-24T02:29:13.531Z,45.89
2017-11-24T02:30:22.174Z,45.99
2017-11-24T02:31:31.361Z,45.89
2017-11-24T02:32:40.277Z,45.99
2017-11-24T02:33:48.909Z,45.6
2017-11-24T02:34:58.382Z,45.79
2017-11-24T02:36:07.872Z,45.99
2017-11-24T02:37:16.812Z,45.99
2017-11-24T02:38:26.034Z,45.6
2017-11-24T02:39:35.234Z,45.89
2017-11-24T02:40:44.667Z,45.92
2017-11-24T02:41:53.832Z,45.6
2017-11-24T02:43:03.307Z,45.89
2017-11-24T02:44:12.221Z,46.08
2017-11-24T02:45:21.425Z,45.79
2017-11-24T02:46:30.600Z,45.7
2017-11-24T02:47:39.842Z,45.89
2017-11-24T02:48:49.059Z,45.79
2017-11-24T02:49:57.982Z,45.89
2017-11-24T02:51:07.433Z,45.7
2017-11-24T02:52:17.148Z,45.51
2017-11-24T02:53:26.658Z,45.6
2017-11-24T02:54:35.565Z,45.89
2017-11-24T02:55:44.747Z,45.7
2017-11-24T02:56:53.914Z,45.89
2017-11-24T02:58:03.631Z,45.89
2017-11-24T02:59:13.097Z,45.7
2017-11-24T03:00:22.060Z,45.7
2017-11-24T03:01:31.519Z,45.7
2017-11-24T03:02:40.972Z,45.89
2017-11-24T03:03:50.163Z,45.7
2017-11-24T03:04:59.092Z,45.6
2017-11-24T03:06:07.998Z,45.89
2017-11-24T03:07:16.911Z,45.89
2017-11-24T03:08:25.827Z,45.7
2017-11-24T03:09:35.275Z,45.79
2017-11-24T03:10:44.973Z,45.79
2017-11-24T03:11:53.650Z,45.51
2017-11-24T03:13:02.544Z,45.51
2017-11-24T03:14:11.748Z,45.79
2017-11-24T03:15:20.657Z,45.89
2017-11-24T03:16:29.589Z,45.89
2017-11-24T03:17:38.236Z,45.6
2017-11-24T03:18:47.150Z,45.7
2017-11-24T03:19:56.648Z,45.7
2017-11-24T03:21:06.107Z,45.6
2017-11-24T03:22:14.765Z,45.89
2017-11-24T03:23:23.954Z,45.89
2017-11-24T03:24:33.462Z,46.08
2017-11-24T03:25:42.633Z,45.7
2017-11-24T03:26:51.558Z,45.6
2017-11-24T03:28:00.200Z,45.79
2017-11-24T03:29:09.382Z,45.89
2017-11-24T03:30:19.113Z,45.6
2017-11-24T03:31:28.823Z,45.79
2017-11-24T03:32:38.029Z,45.89
2017-11-24T03:33:47.497Z,45.79
2017-11-24T03:34:56.141Z,45.7
2017-11-24T03:36:05.582Z,45.79
2017-11-24T03:37:14.491Z,45.79
2017-11-24T03:38:23.388Z,45.79
2017-11-24T03:39:32.600Z,45.89
2017-11-24T03:40:41.539Z,45.99
2017-11-24T03:41:50.969Z,45.99
2017-11-24T03:43:00.151Z,45.6
2017-11-24T03:44:09.878Z,45.6
2017-11-24T03:45:19.052Z,45.89
2017-11-24T03:46:28.483Z,45.99
2017-11-24T03:47:37.667Z,45.89
2017-11-24T03:48:47.373Z,45.7
2017-11-24T03:49:56.034Z,45.6
2017-11-24T03:51:05.484Z,45.6
2017-11-24T03:52:14.421Z,45.99
2017-11-24T03:53:23.348Z,45.6
2017-11-24T03:54:32.566Z,45.89
2017-11-24T03:55:41.498Z,45.99
2017-11-24T03:56:50.411Z,46.08
2017-11-24T03:57:59.592Z,45.99
2017-11-24T03:59:08.232Z,45.89
2017-11-24T04:00:17.410Z,45.89
2017-11-24T04:01:26.319Z,45.79
2017-11-24T04:02:35.236Z,45.79
2017-11-24T04:03:44.161Z,45.7
2017-11-24T04:04:53.315Z,45.7
2017-11-24T04:06:02.539Z,45.89
2017-11-24T04:07:11.719Z,45.89
2017-11-24T04:08:20.905Z,45.79
2017-11-24T04:09:30.385Z,45.7
2017-11-24T04:10:39.294Z,45.7
2017-11-24T04:11:48.469Z,45.7
2017-11-24T04:12:57.126Z,45.51
2017-11-24T04:14:06.037Z,45.79
2017-11-24T04:15:14.680Z,45.6
2017-11-24T04:16:24.410Z,45.79
2017-11-24T04:17:33.329Z,45.7
2017-11-24T04:18:42.256Z,45.7
2017-11-24T04:19:51.163Z,45.7
2017-11-24T04:21:00.077Z,45.89
2017-11-24T04:22:09.248Z,45.99
2017-11-24T04:23:18.699Z,45.6
2017-11-24T04:24:27.621Z,45.99
2017-11-24T04:25:36.815Z,45.79
2017-11-24T04:26:45.449Z,45.79
2017-11-24T04:27:54.897Z,45.79
2017-11-24T04:29:03.803Z,45.89
2017-11-24T04:30:13.257Z,46.08
2017-11-24T04:31:22.706Z,45.79
2017-11-24T04:32:31.898Z,45.99
2017-11-24T04:33:40.792Z,45.99
2017-11-24T04:34:50.008Z,46.08
2017-11-24T04:35:58.711Z,46.08
2017-11-24T04:37:08.132Z,46.18
2017-11-24T04:38:17.572Z,45.89
2017-11-24T04:39:27.030Z,45.89
2017-11-24T04:40:35.942Z,46.08
2017-11-24T04:41:45.103Z,46.08
2017-11-24T04:42:54.041Z,45.89
2017-11-24T04:44:03.225Z,46.18
2017-11-24T04:45:12.221Z,45.99
2017-11-24T04:46:21.397Z,46.08
2017-11-24T04:47:30.063Z,45.99
2017-11-24T04:48:39.292Z,46.08
2017-11-24T04:49:48.474Z,45.99
2017-11-24T04:50:57.107Z,45.89
2017-11-24T04:52:06.036Z,45.89
2017-11-24T04:53:15.360Z,45.89
2017-11-24T04:54:24.554Z,45.89
2017-11-24T04:55:33.998Z,45.89
2017-11-24T04:56:42.635Z,46.18
2017-11-24T04:57:52.076Z,45.89
2017-11-24T04:59:01.032Z,45.89
2017-11-24T05:00:10.196Z,46.18
2017-11-24T05:01:19.891Z,45.99
2017-11-24T05:02:29.057Z,45.99
2017-11-24T05:03:38.512Z,45.99
2017-11-24T05:04:47.441Z,45.99
2017-11-24T05:05:56.907Z,45.79
2017-11-24T05:07:06.089Z,45.79
2017-11-24T05:08:15.267Z,45.99
2017-11-24T05:09:24.175Z,45.79
2017-11-24T05:10:33.098Z,45.99
2017-11-24T05:11:42.530Z,46.08
2017-11-24T05:12:51.705Z,46.08
2017-11-24T05:14:00.881Z,46.08
2017-11-24T05:15:10.051Z,45.79
2017-11-24T05:16:18.990Z,46.08
2017-11-24T05:17:27.929Z,45.99
2017-11-24T05:18:37.649Z,45.79
2017-11-24T05:19:46.820Z,46.08
2017-11-24T05:20:55.999Z,45.89
2017-11-24T05:22:05.184Z,45.99
2017-11-24T05:23:14.902Z,45.89
2017-11-24T05:24:24.123Z,45.99
2017-11-24T05:25:33.023Z,46.08
2017-11-24T05:26:41.932Z,45.99
2017-11-24T05:27:51.178Z,46.08
2017-11-24T05:29:00.341Z,46.08
2017-11-24T05:30:09.792Z,45.89
2017-11-24T05:31:18.993Z,45.99
2017-11-24T05:32:27.666Z,45.99
2017-11-24T05:33:36.581Z,45.79
2017-11-24T05:34:45.300Z,46.08
2017-11-24T05:35:53.953Z,45.99
2017-11-24T05:37:02.857Z,45.79
2017-11-24T05:38:12.376Z,45.6
2017-11-24T05:39:21.853Z,45.6
2017-11-24T05:41:39.577Z,45.51
2017-11-24T05:42:48.493Z,45.41
2017-11-24T05:43:57.505Z,45.41
2017-11-24T05:45:06.966Z,45.41
2017-11-24T05:46:16.123Z,45.89
2017-11-24T05:47:25.034Z,45.34
2017-11-24T05:48:33.720Z,45.34
2017-11-24T05:49:42.909Z,45.34
2017-11-24T05:50:51.818Z,45.04
2017-11-24T05:52:01.015Z,44.85
2017-11-24T05:53:10.184Z,44.95
2017-11-24T05:54:19.643Z,44.76
2017-11-24T05:55:28.797Z,44.56
2017-11-24T05:56:38.477Z,44.68
2017-11-24T05:57:48.192Z,44.78
2017-11-24T05:58:57.678Z,44.97
2017-11-24T06:00:06.869Z,44.39
2017-11-24T06:01:16.069Z,44.29
2017-11-24T06:02:24.993Z,44.2
2017-11-24T06:03:34.439Z,44.1
2017-11-24T06:04:43.353Z,44.1
2017-11-24T06:05:52.803Z,44.01
2017-11-24T06:07:01.459Z,44.39
2017-11-24T06:08:10.676Z,44.1
2017-11-24T06:09:19.902Z,44.12
2017-11-24T06:10:29.346Z,44.22
2017-11-24T06:11:38.289Z,44.12
2017-11-24T06:12:47.485Z,43.84
2017-11-24T06:13:56.464Z,43.93
2017-11-24T06:15:05.685Z,44.03
2017-11-24T06:16:15.431Z,44.12
2017-11-24T06:17:24.332Z,43.93
2017-11-24T06:18:33.256Z,43.64
2017-11-24T06:19:42.750Z,43.64
2017-11-24T06:20:51.967Z,43.64
2017-11-24T06:22:01.202Z,43.66
2017-11-24T06:23:10.405Z,43.54
2017-11-24T06:24:19.616Z,43.85
2017-11-24T06:25:29.101Z,43.66
2017-11-24T06:26:38.322Z,43.47
2017-11-24T06:27:47.489Z,43.47
2017-11-24T06:28:56.140Z,43.37
2017-11-24T06:30:05.048Z,43.37
2017-11-24T06:31:14.529Z,43.08
2017-11-24T06:32:23.744Z,42.99
2017-11-24T06:33:32.922Z,42.99
2017-11-24T06:34:42.117Z,43.01
2017-11-24T06:35:50.772Z,42.82
2017-11-24T06:36:59.443Z,43.01
2017-11-24T06:38:08.380Z,42.82
2017-11-24T06:39:17.818Z,42.99
2017-11-24T06:40:27.004Z,42.99
2017-11-24T06:41:36.249Z,43.01
2017-11-24T06:42:45.412Z,43.2
2017-11-24T06:43:54.614Z,43.2
2017-11-24T06:45:03.552Z,43.2
2017-11-24T06:46:12.209Z,43.1
2017-11-24T06:47:21.148Z,43.1
2017-11-24T06:48:30.325Z,43.1
2017-11-24T06:49:39.247Z,43.4
2017-11-24T06:50:48.983Z,43.3
2017-11-24T06:51:57.932Z,43.49
2017-11-24T06:53:07.376Z,43.49
2017-11-24T06:54:16.276Z,43.76
2017-11-24T06:55:25.449Z,43.78
2017-11-24T06:56:34.624Z,43.68
2017-11-24T06:57:43.786Z,43.57
2017-11-24T06:58:52.508Z,43.49
2017-11-24T07:00:01.166Z,43.76
2017-11-24T07:01:10.367Z,44.24
2017-11-24T07:02:19.022Z,44.15
2017-11-24T07:03:28.401Z,43.85
2017-11-24T07:04:37.308Z,43.85
2017-11-24T07:05:46.248Z,44.24
2017-11-24T07:06:54.919Z,44.24
2017-11-24T07:08:04.089Z,44.24
2017-11-24T07:09:12.994Z,44.43
2017-11-24T07:10:22.164Z,44.05
2017-11-24T07:11:31.601Z,44.05
2017-11-24T07:12:40.760Z,44.24
2017-11-24T07:13:49.782Z,44.34
2017-11-24T07:14:59.077Z,44.43
2017-11-24T07:16:08.531Z,44.53
2017-11-24T07:17:17.708Z,44.92
2017-11-24T07:18:26.892Z,44.92
2017-11-24T07:19:35.531Z,44.7
2017-11-24T07:20:45.781Z,44.63
2017-11-24T07:21:55.291Z,44.6
2017-11-24T07:23:04.489Z,44.42
2017-11-24T07:24:13.391Z,45
2017-11-24T07:25:22.314Z,44.8
2017-11-24T07:26:31.228Z,45
2017-11-24T07:27:40.143Z,45
2017-11-24T07:28:48.803Z,45
2017-11-24T07:29:57.983Z,45
2017-11-24T07:31:07.160Z,45.09
2017-11-24T07:32:16.088Z,45.28
2017-11-24T07:33:25.030Z,45.28
2017-11-24T07:34:33.680Z,45.38
2017-11-24T07:35:43.120Z,45.76
2017-11-24T07:36:52.546Z,45.28
2017-11-24T07:38:02.252Z,45.38
2017-11-24T07:39:10.899Z,45.28
2017-11-24T07:40:20.085Z,45.36
2017-11-24T07:41:28.998Z,45.38
2017-11-24T07:42:37.911Z,45.38
2017-11-24T07:43:47.116Z,45.94
2017-11-24T07:44:55.782Z,45.76
2017-11-24T07:46:04.706Z,45.86
2017-11-24T07:47:13.614Z,45.86
2017-11-24T07:48:23.317Z,45.75
2017-11-24T07:49:32.486Z,45.84
2017-11-24T07:50:41.413Z,45.65
2017-11-24T07:51:50.669Z,45.36
2017-11-24T07:53:00.388Z,45.65
2017-11-24T07:54:09.308Z,45.65
2017-11-24T07:55:18.236Z,45.55
2017-11-24T07:56:27.410Z,45.55
2017-11-24T07:57:36.592Z,45.65
2017-11-24T07:58:46.296Z,45.55
2017-11-24T07:59:55.211Z,45.94
2017-11-24T08:01:04.128Z,45.65
2017-11-24T08:02:13.841Z,45.84
2017-11-24T08:03:22.493Z,46.03
2017-11-24T08:04:31.665Z,45.94
2017-11-24T08:05:40.326Z,46.03
2017-11-24T08:06:50.022Z,46.03
2017-11-24T08:07:58.685Z,46.03
2017-11-24T08:09:07.597Z,45.94
2017-11-24T08:10:16.516Z,45.75
2017-11-24T08:11:25.954Z,45.55
2017-11-24T08:12:35.643Z,45.94
2017-11-24T08:13:45.093Z,45.75
2017-11-24T08:14:54.286Z,45.84
2017-11-24T08:16:03.465Z,46.03
2017-11-24T08:17:12.906Z,46.13
2017-11-24T08:18:21.621Z,46.03
2017-11-24T08:19:30.864Z,45.94
2017-11-24T08:20:39.816Z,45.94
2017-11-24T08:21:49.256Z,46.23
2017-11-24T08:22:58.436Z,46.23
2017-11-24T08:24:07.882Z,46.23
2017-11-24T08:25:17.063Z,46.13
2017-11-24T08:26:25.962Z,46.23
2017-11-24T08:27:35.167Z,46.42
2017-11-24T08:28:44.567Z,46.33
2017-11-24T08:29:54.057Z,46.42
2017-11-24T08:31:03.269Z,46.42
2017-11-24T08:32:12.983Z,46.51
2017-11-24T08:33:21.903Z,46.42
2017-11-24T08:34:31.891Z,46.13
2017-11-24T08:35:41.341Z,46.13
2017-11-24T08:36:50.585Z,46.51
2017-11-24T08:37:59.760Z,46.13
2017-11-24T08:39:08.685Z,46.33
2017-11-24T08:40:17.853Z,46.13
2017-11-24T08:41:26.767Z,46.4
2017-11-24T08:42:36.502Z,46.42
2017-11-24T08:43:45.417Z,46.23
2017-11-24T08:44:54.584Z,46.33
2017-11-24T08:46:03.764Z,46.33
2017-11-24T08:47:12.963Z,46.33
2017-11-24T08:48:22.443Z,46.13
2017-11-24T08:49:32.237Z,46.13
2017-11-24T08:50:41.176Z,46.13
2017-11-24T08:51:50.152Z,46.42
2017-11-24T08:52:59.600Z,46.51
2017-11-24T08:54:08.764Z,46.42
2017-11-24T08:55:17.720Z,46.13
2017-11-24T08:56:27.516Z,46.33
2017-11-24T08:57:36.730Z,46.49
2017-11-24T08:58:46.206Z,46.13
2017-11-24T08:59:54.871Z,46.42
2017-11-24T09:01:03.982Z,46.42
2017-11-24T09:02:13.628Z,46.42
2017-11-24T09:03:22.966Z,46.3
2017-11-24T09:04:31.993Z,46.42
2017-11-24T09:05:41.569Z,46.33
2017-11-24T09:06:51.101Z,46.4
2017-11-24T09:08:00.259Z,46.11
2017-11-24T09:09:09.186Z,46.01
2017-11-24T09:10:18.719Z,46.4
2017-11-24T09:11:27.963Z,46.3
2017-11-24T09:12:36.943Z,46.01
2017-11-24T09:13:45.712Z,46.23
2017-11-24T09:14:54.862Z,46.2
2017-11-24T09:16:04.105Z,46.4
2017-11-24T09:17:12.805Z,46.2
2017-11-24T09:18:22.853Z,46.01
2017-11-24T09:19:31.869Z,46.4
2017-11-24T09:20:41.776Z,46.4
2017-11-24T09:21:51.747Z,46.01
2017-11-24T09:23:00.936Z,46.4
2017-11-24T09:24:09.849Z,46.01
2017-11-24T09:25:19.026Z,46.3
2017-11-24T09:26:28.216Z,46.2
2017-11-24T09:27:37.398Z,46.3
2017-11-24T09:28:46.998Z,46.3
2017-11-24T09:29:56.578Z,46.01
2017-11-24T09:31:05.895Z,46.4
2017-11-24T09:32:15.368Z,46.3
2017-11-24T09:33:25.148Z,46.2
2017-11-24T09:34:34.409Z,46.4
2017-11-24T09:35:44.223Z,46.2
2017-11-24T09:36:53.191Z,46.4
2017-11-24T09:38:02.876Z,46.3
2017-11-24T09:39:11.903Z,46.2
2017-11-24T09:40:21.137Z,46.4
2017-11-24T09:41:29.843Z,46.2
2017-11-24T09:42:39.077Z,46.4
2017-11-24T09:43:48.309Z,46.4
2017-11-24T09:44:57.006Z,46.33
2017-11-24T09:46:06.910Z,46.2
2017-11-24T09:47:16.335Z,46.3
2017-11-24T09:48:25.530Z,46.3
2017-11-24T09:49:34.901Z,46.3
2017-11-24T09:50:43.687Z,46.3
2017-11-24T09:51:52.745Z,46.3
2017-11-24T09:53:01.890Z,46.4
2017-11-24T09:54:11.606Z,46.2
2017-11-24T09:55:21.431Z,46.3
2017-11-24T09:56:30.853Z,46.01
2017-11-24T09:57:40.007Z,46.2
2017-11-24T09:58:49.492Z,46.3
2017-11-24T09:59:58.504Z,46.11
2017-11-24T10:01:07.743Z,46.2
2017-11-24T10:02:17.276Z,46.2
2017-11-24T10:03:26.752Z,46.2
2017-11-24T10:04:35.686Z,46.2
2017-11-24T10:05:44.750Z,46.2
2017-11-24T10:06:54.149Z,46.2
2017-11-24T10:08:02.869Z,46.01
2017-11-24T10:09:11.598Z,46.4
2017-11-24T10:10:20.687Z,46.3
2017-11-24T10:11:29.942Z,46.2
2017-11-24T10:12:38.958Z,46.4
2017-11-24T10:13:47.750Z,46.2
2017-11-24T10:14:57.555Z,46.3
2017-11-24T10:16:06.953Z,46.3
2017-11-24T10:17:16.230Z,46.3
2017-11-24T10:18:25.793Z,46.2
2017-11-24T10:19:35.302Z,46.4
2017-11-24T10:20:44.891Z,46.01
2017-11-24T10:21:53.914Z,46.2
2017-11-24T10:23:03.261Z,46.4
2017-11-24T10:24:12.367Z,46.49
2017-11-24T10:25:21.149Z,46.49
2017-11-24T10:26:30.756Z,46.2
2017-11-24T10:27:40.106Z,46.3
2017-11-24T10:28:49.196Z,46.3
2017-11-24T10:29:58.521Z,46.2
2017-11-24T10:31:08.033Z,46.3
2017-11-24T10:32:16.949Z,46.4
2017-11-24T10:33:26.142Z,46.3
2017-11-24T10:34:34.868Z,46.2
2017-11-24T10:35:44.408Z,46.4
2017-11-24T10:36:53.375Z,46.2
2017-11-24T10:38:02.288Z,46.2
2017-11-24T10:39:11.489Z,46.2
2017-11-24T10:40:20.402Z,46.2
2017-11-24T10:41:29.599Z,46.2
2017-11-24T10:42:39.055Z,46.2
2017-11-24T10:43:48.257Z,46.4
2017-11-24T10:44:57.423Z,46.11
2017-11-24T10:46:06.876Z,46.3
2017-11-24T10:47:16.627Z,46.3
2017-11-24T10:48:25.818Z,46.11
2017-11-24T10:49:35.281Z,46.11
2017-11-24T10:50:44.202Z,46.3
2017-11-24T10:51:53.917Z,46.4
2017-11-24T10:53:03.424Z,46.11
2017-11-24T10:54:12.606Z,46.49
2017-11-24T10:55:21.790Z,46.49
2017-11-24T10:56:31.490Z,46.3
2017-11-24T10:57:40.926Z,46.4
2017-11-24T10:58:49.849Z,46.4
2017-11-24T10:59:59.079Z,46.59
2017-11-24T11:01:08.291Z,46.49
2017-11-24T11:02:17.482Z,46.4
2017-11-24T11:03:26.930Z,46.59
2017-11-24T11:04:36.384Z,46.3
2017-11-24T11:05:45.575Z,46.4
2017-11-24T11:06:54.750Z,46.69
2017-11-24T11:08:03.925Z,46.2
2017-11-24T11:09:12.838Z,46.2
2017-11-24T11:10:22.318Z,46.59
2017-11-24T11:11:31.252Z,46.11
2017-11-24T11:12:40.417Z,46.3
2017-11-24T11:13:49.634Z,46.2
2017-11-24T11:14:58.586Z,46.59
2017-11-24T11:16:07.500Z,46.11
2017-11-24T11:17:16.779Z,46.11
2017-11-24T11:18:26.220Z,46.2
2017-11-24T11:19:35.674Z,46.11
2017-11-24T11:20:44.584Z,46.2
2017-11-24T11:21:53.761Z,46.2
2017-11-24T11:23:02.955Z,46.2
2017-11-24T11:24:11.861Z,46.3
2017-11-24T11:25:21.047Z,46.2
2017-11-24T11:26:29.695Z,46.2
2017-11-24T11:27:38.916Z,46.3
2017-11-24T11:28:47.834Z,46.3
2017-11-24T11:29:56.496Z,46.2
2017-11-24T11:31:05.678Z,46.2
2017-11-24T11:32:15.114Z,46.11
2017-11-24T11:33:24.028Z,46.2
2017-11-24T11:34:33.204Z,46.11
2017-11-24T11:35:41.851Z,46.2
2017-11-24T11:36:50.779Z,46.2
2017-11-24T11:37:59.676Z,46.2
2017-11-24T11:39:08.607Z,45.92
2017-11-24T11:40:17.792Z,46.4
2017-11-24T11:41:26.975Z,46.2
2017-11-24T11:42:35.897Z,46.11
2017-11-24T11:43:45.072Z,46.2
2017-11-24T11:44:54.253Z,46.2
2017-11-24T11:46:02.916Z,46.3
2017-11-24T11:47:11.836Z,46.2
2017-11-24T11:48:21.086Z,46.2
2017-11-24T11:49:30.258Z,46.2
2017-11-24T11:50:38.942Z,46.2
2017-11-24T11:51:48.118Z,46.11
2017-11-24T11:52:57.312Z,46.11
2017-11-24T11:54:06.556Z,46.2
2017-11-24T11:55:15.737Z,46.2
2017-11-24T11:56:24.684Z,46.2
2017-11-24T11:57:33.363Z,46.2
2017-11-24T11:58:42.805Z,45.92
2017-11-24T11:59:51.712Z,45.92
2017-11-24T12:01:00.367Z,46.01
2017-11-24T12:02:09.284Z,45.72
2017-11-24T12:03:18.201Z,45.82
2017-11-24T12:04:27.116Z,45.72
2017-11-24T12:05:36.040Z,45.62
2017-11-24T12:06:44.950Z,45.72
2017-11-24T12:07:53.602Z,45.82
2017-11-24T12:09:02.500Z,45.82
2017-11-24T12:10:11.945Z,46.01
2017-11-24T12:11:21.122Z,46.01
2017-11-24T12:12:30.813Z,46.11
2017-11-24T12:13:39.465Z,46.01
2017-11-24T12:14:48.949Z,46.01
2017-11-24T12:15:58.394Z,45.92
2017-11-24T12:17:07.309Z,46.01
2017-11-24T12:18:16.490Z,46.01
2017-11-24T12:19:25.412Z,45.92
2017-11-24T12:20:34.851Z,45.92
2017-11-24T12:21:44.303Z,46.01
2017-11-24T12:22:53.765Z,45.92
2017-11-24T12:24:03.196Z,45.92
2017-11-24T12:25:12.369Z,45.92
2017-11-24T12:26:21.271Z,46.2
2017-11-24T12:27:30.186Z,46.4
2017-11-24T12:28:39.105Z,46.2
2017-11-24T12:29:48.301Z,46.2
2017-11-24T12:30:57.754Z,46.2
2017-11-24T12:32:06.667Z,46.2
2017-11-24T12:33:16.394Z,46.2
2017-11-24T12:34:25.312Z,46.2
2017-11-24T12:35:34.513Z,46.49
2017-11-24T12:36:43.703Z,46.59
2017-11-24T12:37:53.148Z,46.59
2017-11-24T12:39:02.394Z,46.3
2017-11-24T12:40:11.301Z,46.59
2017-11-24T12:41:20.468Z,46.49
2017-11-24T12:42:29.642Z,46.3
2017-11-24T12:43:38.546Z,46.3
2017-11-24T12:44:48.291Z,46.4
2017-11-24T12:45:57.486Z,46.49
2017-11-24T12:47:06.675Z,46.11
2017-11-24T12:48:15.317Z,46.11
2017-11-24T12:49:23.964Z,46.11
2017-11-24T12:50:33.148Z,46.11
2017-11-24T12:51:41.792Z,46.2
2017-11-24T12:52:51.242Z,46.2
2017-11-24T12:54:00.442Z,46.2
2017-11-24T12:55:09.630Z,46.4
2017-11-24T12:56:19.062Z,46.4
2017-11-24T12:57:28.497Z,46.4
2017-11-24T12:58:37.677Z,46.3
2017-11-24T12:59:47.144Z,46.2
2017-11-24T13:00:56.589Z,46.01
2017-11-24T13:02:05.517Z,46.49
2017-11-24T13:03:14.420Z,46.2
2017-11-24T13:04:23.889Z,46.2
2017-11-24T13:05:32.804Z,46.18
2017-11-24T13:06:41.720Z,46.18
2017-11-24T13:07:50.905Z,46.2
2017-11-24T13:09:00.636Z,46.11
2017-11-24T13:10:09.551Z,46.2
2017-11-24T13:11:18.473Z,46.2
2017-11-24T13:12:27.147Z,46.2
2017-11-24T13:13:36.583Z,46.2
2017-11-24T13:14:45.527Z,46.01
2017-11-24T13:15:55.054Z,46.01
2017-11-24T13:17:03.994Z,46.3
2017-11-24T13:18:12.922Z,46.18
2017-11-24T13:19:21.869Z,46.3
2017-11-24T13:20:30.779Z,46.11
2017-11-24T13:21:39.946Z,46.2
2017-11-24T13:22:49.381Z,46.3
2017-11-24T13:23:58.869Z,46.3
2017-11-24T13:25:08.361Z,46.18
2017-11-24T13:26:17.022Z,46.18
2017-11-24T13:27:25.978Z,46.18
2017-11-24T13:28:35.221Z,46.28
2017-11-24T13:29:43.896Z,46.37
2017-11-24T13:30:53.345Z,46.37
2017-11-24T13:32:02.521Z,46.08
2017-11-24T13:33:11.452Z,46.47
2017-11-24T13:34:20.631Z,46.08
2017-11-24T13:35:29.302Z,46.37
2017-11-24T13:36:38.746Z,46.47
2017-11-24T13:37:47.710Z,46.28
2017-11-24T13:38:56.931Z,46.37
2017-11-24T13:40:06.043Z,46.59
2017-11-24T13:41:14.753Z,46.37
2017-11-24T13:42:23.702Z,46.28
2017-11-24T13:43:33.207Z,46.47
2017-11-24T13:44:42.555Z,46.47
2017-11-24T13:45:51.509Z,46.28
2017-11-24T13:47:00.691Z,46.08
2017-11-24T13:48:09.629Z,46.49
2017-11-24T13:49:19.055Z,46.11
2017-11-24T13:50:28.500Z,46.49
2017-11-24T13:51:37.460Z,46.08
2017-11-24T13:52:46.679Z,46.37
2017-11-24T13:53:55.877Z,46.37
2017-11-24T13:55:05.182Z,46.47
2017-11-24T13:56:14.922Z,46.47
2017-11-24T13:57:24.002Z,46.47
2017-11-24T13:58:32.649Z,46.47
2017-11-24T13:59:42.400Z,46.56
2017-11-24T14:00:51.870Z,46.47
2017-11-24T14:02:00.803Z,46.59
2017-11-24T14:03:09.736Z,46.37
2017-11-24T14:04:18.413Z,46.28
2017-11-24T14:05:27.630Z,46.47
2017-11-24T14:06:36.573Z,46.47
2017-11-24T14:07:45.794Z,46.56
2017-11-24T14:08:54.527Z,46.56
2017-11-24T14:10:03.419Z,46.47
2017-11-24T14:11:12.677Z,46.56
2017-11-24T14:12:21.619Z,46.28
2017-11-24T14:13:30.959Z,46.18
2017-11-24T14:14:40.114Z,46.37
2017-11-24T14:15:49.610Z,46.3
2017-11-24T14:16:59.384Z,46.37
2017-11-24T14:18:08.991Z,46.28
2017-11-24T14:19:18.308Z,46.56
2017-11-24T14:20:27.363Z,46.47
2017-11-24T14:21:36.550Z,46.47
2017-11-24T14:22:45.476Z,46.47
2017-11-24T14:23:54.665Z,46.28
2017-11-24T14:25:03.869Z,46.47
2017-11-24T14:26:12.790Z,46.47
2017-11-24T14:27:21.449Z,46.47
2017-11-24T14:28:30.219Z,46.47
2017-11-24T14:29:39.397Z,46.47
2017-11-24T14:30:48.363Z,46.28
2017-11-24T14:31:57.812Z,46.28
2017-11-24T14:33:06.994Z,46.18
2017-11-24T14:34:15.956Z,46.56
2017-11-24T14:35:25.484Z,46.47
2017-11-24T14:36:35.148Z,46.08
2017-11-24T14:37:44.595Z,46.08
2017-11-24T14:38:53.508Z,46.28
2017-11-24T14:40:03.458Z,46.18
2017-11-24T14:41:12.403Z,46.18
2017-11-24T14:42:22.161Z,46.28
2017-11-24T14:43:31.076Z,46.18
2017-11-24T14:44:39.990Z,46.18
2017-11-24T14:45:49.165Z,46.18
2017-11-24T14:46:58.117Z,46.18
2017-11-24T14:48:07.146Z,46.08
2017-11-24T14:49:16.076Z,46.18
2017-11-24T14:50:24.722Z,46.08
2017-11-24T14:51:33.645Z,46.18
2017-11-24T14:52:42.739Z,46.28
2017-11-24T14:53:52.325Z,46.18
2017-11-24T14:55:01.326Z,46.18
2017-11-24T14:56:10.548Z,46.18
2017-11-24T14:57:19.612Z,46.08
2017-11-24T14:58:28.819Z,46.28
2017-11-24T14:59:37.817Z,46.18